Time;durP1;ratioP1;P1;durP2;ratioP2;P2;SDS_P1;SDS_P2;PMS_P1;PMS_P2;Temp;Humidity;BMP_temperature;BMP_pressure;BME280_temperature;BME280_humidity;BME280_pressure;Samples;Min_cycle;Max_cycle;Signal;HPM_P1;HPM_P2
2022/01/21 00:00:57;;;;;;;16.43;8.40;;;;;;;8.64;45.51;94442.19;5011860;28;20228;-71
2022/01/21 00:03:24;;;;;;;13.03;8.20;;;;;;;8.65;45.59;94440.44;5012195;28;20676;-72
2022/01/21 00:05:51;;;;;;;16.37;8.73;;;;;;;8.66;45.67;94434.38;5012312;28;20602;-73
2022/01/21 00:08:19;;;;;;;16.37;9.20;;;;;;;8.63;45.53;94444.84;5011905;28;20695;-72
2022/01/21 00:10:46;;;;;;;15.53;9.07;;;;;;;8.67;45.50;94444.44;5012289;28;20180;-73
2022/01/21 00:13:21;;;;;;;13.60;8.70;;;;;;;8.69;45.72;94464.72;5012119;28;20200;-73
2022/01/21 00:15:48;;;;;;;13.50;8.80;;;;;;;8.68;45.72;94451.16;5011995;28;20195;-72
2022/01/21 00:18:15;;;;;;;21.17;9.40;;;;;;;8.69;45.66;94457.06;5011806;28;20627;-72
2022/01/21 00:31:40;;;;;;;12.83;7.77;;;;;;;8.74;46.51;94465.94;5011742;28;20250;-71
2022/01/21 00:34:07;;;;;;;11.13;6.97;;;;;;;8.77;46.67;94470.78;5011822;28;20193;-72
2022/01/21 00:36:34;;;;;;;8.40;5.07;;;;;;;8.77;47.61;94475.88;5012323;28;20270;-74
2022/01/21 00:39:02;;;;;;;7.23;4.73;;;;;;;8.85;47.89;94487.97;5011712;28;20199;-71
2022/01/21 00:41:33;;;;;;;5.23;3.37;;;;;;;8.80;48.87;94483.22;5011689;28;20199;-72
2022/01/21 00:44:00;;;;;;;6.03;3.80;;;;;;;8.85;49.61;94500.72;5011193;28;20269;-71
2022/01/21 00:46:26;;;;;;;6.47;3.33;;;;;;;8.86;50.73;94496.41;5011704;28;20228;-71
2022/01/21 00:48:53;;;;;;;4.60;2.90;;;;;;;8.85;51.49;94495.63;5011437;28;20184;-73
2022/01/21 00:51:20;;;;;;;3.27;2.83;;;;;;;8.82;53.18;94503.50;5013131;28;20185;-71
2022/01/21 00:53:47;;;;;;;5.60;2.60;;;;;;;8.78;53.48;94502.16;5013120;28;20652;-73
2022/01/21 00:56:15;;;;;;;3.03;2.47;;;;;;;8.79;54.35;94504.56;5012848;28;20561;-71
2022/01/21 00:58:42;;;;;;;3.00;2.70;;;;;;;8.78;54.62;94518.25;5012780;28;20204;-72
2022/01/21 01:01:09;;;;;;;3.27;2.83;;;;;;;8.76;55.13;94522.69;5011479;28;20550;-73
2022/01/21 01:03:36;;;;;;;3.63;2.80;;;;;;;8.73;55.83;94507.66;5011756;28;20244;-70
2022/01/21 01:06:02;;;;;;;6.37;2.97;;;;;;;8.71;56.36;94514.63;5011548;28;20223;-72
2022/01/21 01:08:29;;;;;;;6.33;2.80;;;;;;;8.63;56.28;94488.97;5011999;28;20306;-71
2022/01/21 01:11:15;;;;;;;3.90;2.93;;;;;;;8.69;56.32;94511.41;5011027;28;20192;-75
2022/01/21 01:21:57;;;;;;;4.70;2.93;;;;;;;8.62;56.96;94489.13;5011170;28;20273;-71
2022/01/21 01:29:54;;;;;;;6.83;3.30;;;;;;;8.54;57.58;94487.22;4950333;29;20586;-73
2022/01/21 01:32:21;;;;;;;3.13;2.83;;;;;;;8.53;57.59;94486.41;4949726;29;20190;-74
2022/01/21 01:34:48;;;;;;;4.30;2.70;;;;;;;8.52;57.60;94478.91;4950036;29;20277;-72
2022/01/21 01:37:28;;;;;;;3.77;3.10;;;;;;;8.48;58.01;94467.34;4950128;29;20187;-71
2022/01/21 01:40:12;;;;;;;5.00;2.80;;;;;;;8.52;57.80;94463.59;4950111;29;20543;-74
2022/01/21 01:43:03;;;;;;;3.87;2.80;;;;;;;8.37;57.75;94445.31;4949937;29;20289;-73
2022/01/21 01:51:04;;;;;;;5.27;3.40;;;;;;;8.51;57.85;94470.44;4927663;29;20206;-71
2022/01/21 01:53:35;;;;;;;6.63;3.47;;;;;;;8.46;57.98;94470.03;4950381;29;20357;-72
2022/01/21 01:56:03;;;;;;;4.27;3.17;;;;;;;8.25;58.05;94433.63;4948755;29;20197;-73
2022/01/21 01:58:36;;;;;;;3.40;3.10;;;;;;;8.21;58.40;94445.81;4949756;29;20818;-74
2022/01/21 02:01:05;;;;;;;4.50;3.17;;;;;;;8.42;58.64;94478.88;4949582;29;20194;-74
2022/01/21 02:03:33;;;;;;;3.47;3.00;;;;;;;8.41;58.88;94482.34;4959547;28;20203;-75
2022/01/21 02:06:00;;;;;;;4.53;3.10;;;;;;;8.39;58.72;94489.31;5010182;28;20224;-72
2022/01/21 02:08:31;;;;;;;5.80;3.07;;;;;;;8.37;59.11;94490.38;5009961;28;20220;-75
2022/01/21 02:10:58;;;;;;;4.20;3.03;;;;;;;8.29;59.43;94480.81;5010148;28;20189;-74
2022/01/21 02:13:27;;;;;;;4.73;3.43;;;;;;;8.32;59.79;94482.28;5010365;28;20598;-73
2022/01/21 02:16:05;;;;;;;6.23;3.63;;;;;;;8.32;59.84;94484.84;5010051;28;20337;-72
2022/01/21 02:21:32;;;;;;;7.37;3.73;;;;;;;8.18;60.66;94474.06;5010051;28;20187;-73
2022/01/21 02:24:01;;;;;;;3.60;3.27;;;;;;;8.18;61.10;94486.81;5010193;28;20739;-74
2022/01/21 02:26:31;;;;;;;7.40;3.80;;;;;;;8.23;61.18;94497.41;5009804;28;20259;-74
2022/01/21 02:29:00;;;;;;;10.27;4.50;;;;;;;8.21;61.25;94494.19;5010048;28;20189;-74
2022/01/21 02:31:27;;;;;;;8.43;4.17;;;;;;;8.20;61.18;94492.59;5009900;28;20193;-74
2022/01/21 02:33:54;;;;;;;5.40;4.57;;;;;;;8.18;61.62;94504.63;5009862;28;20738;-72
2022/01/21 02:36:21;;;;;;;8.27;4.57;;;;;;;8.16;61.89;94505.69;5009952;28;20570;-71
2022/01/21 02:38:49;;;;;;;8.43;4.97;;;;;;;8.16;62.22;94510.78;5010279;28;20189;-72
2022/01/21 02:41:17;;;;;;;6.53;4.40;;;;;;;8.15;61.87;94511.72;5010029;28;20191;-72
2022/01/21 02:43:44;;;;;;;5.67;4.83;;;;;;;8.11;62.31;94521.34;5010416;28;20185;-73
2022/01/21 02:46:11;;;;;;;6.00;4.73;;;;;;;8.11;62.42;94526.44;5009422;28;20231;-73
2022/01/21 02:48:38;;;;;;;8.93;4.17;;;;;;;8.10;62.65;94527.38;5009869;28;20203;-72
2022/01/21 02:51:07;;;;;;;5.73;4.20;;;;;;;8.06;62.55;94520.91;5009681;28;20204;-73
2022/01/21 02:54:03;;;;;;;5.33;4.37;;;;;;;8.05;62.80;94530.31;5009901;28;20779;-72
2022/01/21 02:56:29;;;;;;;7.20;4.60;;;;;;;8.00;62.93;94524.78;5009484;28;20279;-73
2022/01/21 02:58:57;;;;;;;7.20;4.57;;;;;;;8.01;63.06;94533.22;5009941;28;20579;-72
2022/01/21 03:01:24;;;;;;;4.90;4.00;;;;;;;7.94;63.06;94517.63;5009676;28;20196;-74
2022/01/21 03:03:52;;;;;;;4.80;4.27;;;;;;;7.95;63.28;94529.47;5010216;28;20195;-74
2022/01/21 03:06:22;;;;;;;5.00;4.50;;;;;;;7.92;63.46;94534.00;5010118;28;20220;-73
2022/01/21 03:08:50;;;;;;;6.13;4.70;;;;;;;7.91;63.58;94535.72;5013275;28;20220;-74
2022/01/21 03:11:17;;;;;;;5.10;4.53;;;;;;;7.89;63.92;94534.22;5012821;28;20609;-75
2022/01/21 03:13:48;;;;;;;6.37;4.93;;;;;;;7.84;63.88;94537.16;5013532;28;20188;-75
2022/01/21 03:16:15;;;;;;;5.27;4.30;;;;;;;7.80;64.01;94536.59;5012953;28;20254;-74
2022/01/21 03:18:42;;;;;;;5.37;4.57;;;;;;;7.80;64.18;94543.41;5013343;28;20258;-73
2022/01/21 03:21:15;;;;;;;4.97;3.90;;;;;;;7.77;64.09;94536.88;5012859;28;20668;-73
2022/01/21 03:23:43;;;;;;;5.80;3.97;;;;;;;7.67;64.52;94527.53;5013357;28;20193;-73
2022/01/21 03:26:10;;;;;;;4.53;4.07;;;;;;;7.61;64.84;94518.66;5012686;28;20219;-74
2022/01/21 03:28:36;;;;;;;5.00;4.07;;;;;;;7.67;65.03;94537.72;5013298;28;20200;-73
2022/01/21 03:31:04;;;;;;;3.33;3.00;;;;;;;7.50;65.10;94528.88;5013024;28;20197;-74
2022/01/21 03:33:31;;;;;;;3.70;3.30;;;;;;;7.56;64.81;94548.78;5012281;28;20192;-72
2022/01/21 03:35:58;;;;;;;3.03;2.83;;;;;;;7.47;64.79;94552.03;5013068;28;20630;-74
2022/01/21 03:38:26;;;;;;;2.90;2.70;;;;;;;7.49;64.62;94573.06;5012655;28;20250;-75
2022/01/21 03:40:53;;;;;;;2.90;2.53;;;;;;;7.49;64.86;94570.53;5012990;28;20288;-74
2022/01/21 03:43:20;;;;;;;2.20;2.10;;;;;;;7.33;65.08;94558.22;5012410;28;20203;-74
2022/01/21 03:45:48;;;;;;;2.40;2.20;;;;;;;7.42;65.29;94574.47;5014034;28;20199;-74
2022/01/21 03:48:17;;;;;;;2.07;1.90;;;;;;;7.35;65.49;94573.38;5012475;28;20228;-74
2022/01/21 03:50:44;;;;;;;2.03;1.93;;;;;;;7.27;65.49;94553.63;5011471;28;20195;-72
2022/01/21 03:53:11;;;;;;;2.10;2.00;;;;;;;7.31;65.57;94565.16;5012268;28;20200;-74
2022/01/21 03:55:38;;;;;;;1.90;1.80;;;;;;;7.29;65.68;94578.00;5012362;28;20200;-72
2022/01/21 03:58:07;;;;;;;1.60;1.50;;;;;;;7.29;66.00;94582.28;5012046;28;20185;-72
2022/01/21 04:00:37;;;;;;;1.70;1.60;;;;;;;7.28;66.08;94584.00;5012336;28;20649;-73
2022/01/21 04:03:04;;;;;;;2.00;1.90;;;;;;;7.26;66.17;94575.72;5011751;28;20583;-74
2022/01/21 04:05:33;;;;;;;2.13;1.97;;;;;;;7.26;65.86;94575.72;5012052;28;20196;-73
2022/01/21 04:08:00;;;;;;;2.03;1.93;;;;;;;7.15;65.88;94567.28;5012123;28;20231;-74
2022/01/21 04:10:27;;;;;;;2.00;1.90;;;;;;;7.24;66.04;94581.81;5012146;28;20288;-75
2022/01/21 04:12:54;;;;;;;1.87;1.77;;;;;;;7.23;66.21;94596.28;5012235;28;20184;-73
2022/01/21 04:15:22;;;;;;;1.87;1.77;;;;;;;7.21;66.42;94593.06;5012241;28;20536;-72
2022/01/21 04:17:49;;;;;;;2.03;1.80;;;;;;;7.20;66.48;94599.06;5012294;28;20191;-74
2022/01/21 04:20:17;;;;;;;1.80;1.70;;;;;;;7.03;66.53;94586.84;5011755;28;20607;-74
2022/01/21 04:22:45;;;;;;;1.73;1.63;;;;;;;7.18;66.39;94605.22;5012784;28;20207;-74
2022/01/21 04:25:12;;;;;;;1.77;1.67;;;;;;;7.14;66.38;94598.75;5012355;28;20255;-73
2022/01/21 04:27:39;;;;;;;1.70;1.60;;;;;;;7.12;66.45;94610.75;5011820;28;20208;-73
2022/01/21 04:30:09;;;;;;;1.60;1.60;;;;;;;7.10;66.61;94612.63;5010225;28;20645;-74
2022/01/21 04:32:35;;;;;;;1.77;1.67;;;;;;;7.08;66.76;94619.53;5011352;28;20188;-73
2022/01/21 04:35:02;;;;;;;1.63;1.60;;;;;;;7.03;66.75;94627.53;5011258;28;20200;-74
2022/01/21 04:37:29;;;;;;;1.90;1.80;;;;;;;6.98;67.04;94627.88;5011782;28;20188;-75
2022/01/21 04:40:04;;;;;;;4.00;1.73;;;;;;;6.97;66.88;94628.81;5011649;28;20979;-73
2022/01/21 04:48:05;;;;;;;2.20;2.10;;;;;;;6.90;67.13;94637.81;4950769;29;20257;-71
2022/01/21 04:50:39;;;;;;;1.80;1.70;;;;;;;6.86;67.55;94645.78;4950288;29;20202;-72
2022/01/21 04:53:06;;;;;;;1.87;1.77;;;;;;;6.69;67.23;94619.94;4951435;29;20297;-70
2022/01/21 04:55:35;;;;;;;1.83;1.73;;;;;;;6.82;67.75;94646.94;4950520;29;20213;-72
2022/01/21 04:58:03;;;;;;;2.67;1.87;;;;;;;6.80;67.58;94659.78;4950671;29;20204;-71
2022/01/21 05:00:30;;;;;;;1.90;1.80;;;;;;;6.81;67.44;94663.94;4950507;29;20327;-72
2022/01/21 05:02:57;;;;;;;1.87;1.77;;;;;;;6.82;67.60;94668.09;4950280;29;20710;-72
2022/01/21 05:05:24;;;;;;;1.90;1.80;;;;;;;6.82;67.47;94669.81;4949947;29;20190;-72
2022/01/21 05:07:51;;;;;;;1.80;1.70;;;;;;;6.69;67.29;94649.59;4950380;29;21009;-72
2022/01/21 05:10:18;;;;;;;2.00;1.90;;;;;;;6.81;67.51;94663.13;4949863;29;20193;-71
2022/01/21 05:12:46;;;;;;;2.23;2.13;;;;;;;6.68;67.59;94651.34;4950371;29;20198;-72
2022/01/21 05:15:20;;;;;;;1.90;1.80;;;;;;;6.78;67.68;94674.34;4949797;29;20214;-73
2022/01/21 05:17:49;;;;;;;2.97;1.87;;;;;;;6.77;67.58;94668.44;4950451;29;20194;-72
2022/01/21 05:20:17;;;;;;;2.07;1.97;;;;;;;6.77;67.61;94668.44;4949629;29;20201;-72
2022/01/21 05:22:45;;;;;;;1.93;1.83;;;;;;;6.74;67.67;94675.50;5000392;28;20203;-73
2022/01/21 05:25:16;;;;;;;1.90;1.80;;;;;;;6.67;67.86;94672.59;5011045;28;20216;-72
2022/01/21 05:27:47;;;;;;;2.20;2.00;;;;;;;6.69;67.89;94675.03;5011267;28;20215;-74
2022/01/21 05:30:16;;;;;;;2.27;2.07;;;;;;;6.73;67.83;94687.38;5010403;28;20243;-75
2022/01/21 05:32:43;;;;;;;2.43;2.23;;;;;;;6.74;67.95;94698.38;5011136;28;20564;-74
2022/01/21 05:35:10;;;;;;;4.67;2.60;;;;;;;6.75;67.56;94700.00;5010240;28;20200;-72
2022/01/21 05:37:37;;;;;;;2.60;2.40;;;;;;;6.71;67.39;94703.69;5010298;28;20240;-73
2022/01/21 05:40:06;;;;;;;2.07;1.97;;;;;;;6.71;67.55;94712.09;5010262;28;20195;-73
2022/01/21 05:42:35;;;;;;;2.20;2.10;;;;;;;6.70;67.30;94728.28;5010276;28;20200;-75
2022/01/21 05:47:49;;;;;;;2.40;2.20;;;;;;;6.15;66.92;94658.66;5002482;28;20719;-75
2022/01/21 05:50:16;;;;;;;2.40;2.20;;;;;;;6.66;67.05;94736.25;4988205;28;20193;-77
2022/01/21 05:52:45;;;;;;;2.33;2.20;;;;;;;6.64;67.02;94733.00;4989419;28;20200;-76
2022/01/21 05:55:12;;;;;;;2.40;2.20;;;;;;;6.60;67.08;94739.22;4989075;28;20297;-75
2022/01/21 05:57:39;;;;;;;2.70;2.50;;;;;;;6.60;67.42;94750.19;4989238;28;20196;-78
2022/01/21 06:00:10;;;;;;;2.87;2.57;;;;;;;6.62;66.69;94750.09;4988008;28;20247;-73
2022/01/21 06:02:37;;;;;;;2.47;2.27;;;;;;;6.59;66.72;94751.13;4988348;28;20902;-77
2022/01/21 06:05:05;;;;;;;3.03;2.63;;;;;;;6.59;66.67;94755.41;4988467;28;20296;-75
2022/01/21 06:07:32;;;;;;;2.93;2.63;;;;;;;6.58;66.70;94759.66;4986918;28;20259;-76
2022/01/21 06:09:59;;;;;;;2.50;2.30;;;;;;;6.59;66.41;94768.09;4987982;28;20196;-76
2022/01/21 06:12:26;;;;;;;2.40;2.20;;;;;;;6.57;66.36;94768.22;4987926;28;20368;-75
2022/01/21 06:14:53;;;;;;;3.10;2.80;;;;;;;6.58;66.38;94781.72;4988379;28;20703;-81
2022/01/21 06:17:21;;;;;;;2.53;2.33;;;;;;;6.58;66.14;94779.19;4987938;28;20200;-75
2022/01/21 06:19:48;;;;;;;3.00;2.80;;;;;;;6.59;66.04;94786.69;4988317;28;20193;-76
2022/01/21 06:22:16;;;;;;;2.73;2.53;;;;;;;6.59;65.88;94796.06;4987892;28;20192;-74
2022/01/21 06:24:43;;;;;;;2.47;2.37;;;;;;;6.59;65.90;94804.47;4988258;28;20304;-81
2022/01/21 06:27:10;;;;;;;2.40;2.20;;;;;;;6.59;66.08;94806.22;4987805;28;20784;-75
2022/01/21 06:29:37;;;;;;;2.80;2.60;;;;;;;6.59;66.04;94814.63;4988354;28;20212;-75
2022/01/21 06:32:04;;;;;;;2.73;2.53;;;;;;;6.59;66.14;94803.66;5005488;28;20201;-76
2022/01/21 06:34:32;;;;;;;6.30;2.40;;;;;;;6.75;81.56;94819.44;4987561;28;20201;-74
2022/01/21 06:36:59;;;;;;;3.00;2.70;;;;;;;7.00;78.17;94814.19;4987731;28;20648;-77
2022/01/21 06:39:26;;;;;;;2.87;2.60;;;;;;;7.16;73.91;94823.19;4988040;28;20189;-74
2022/01/21 06:41:55;;;;;;;3.23;2.83;;;;;;;7.19;71.13;94828.88;4989413;28;20201;-74
2022/01/21 06:44:21;;;;;;;2.87;2.57;;;;;;;7.09;69.35;94819.50;4991196;28;20200;-73
2022/01/21 06:46:48;;;;;;;2.70;2.50;;;;;;;7.17;68.13;94835.03;4992074;28;20185;-73
2022/01/21 06:49:15;;;;;;;3.50;2.87;;;;;;;7.15;66.86;94836.84;4991475;28;20217;-74
2022/01/21 06:51:44;;;;;;;3.70;3.13;;;;;;;7.12;66.20;94842.97;4991880;28;20220;-71
2022/01/21 06:54:12;;;;;;;3.77;3.40;;;;;;;7.10;65.49;94852.44;4991556;28;20239;-75
2022/01/21 06:56:39;;;;;;;3.33;3.03;;;;;;;7.09;65.20;94861.00;4991595;28;20185;-74
2022/01/21 06:59:06;;;;;;;5.33;3.57;;;;;;;7.06;64.91;94861.22;4991592;28;20193;-76
2022/01/21 07:01:33;;;;;;;7.27;5.30;;;;;;;7.06;64.69;94868.03;4991743;28;20192;-74
2022/01/21 07:03:59;;;;;;;5.13;4.10;;;;;;;7.04;64.55;94868.97;4991541;28;20208;-73
2022/01/21 07:06:26;;;;;;;4.90;3.97;;;;;;;7.02;64.27;94883.50;4991807;28;20224;-74
2022/01/21 07:08:54;;;;;;;5.07;4.17;;;;;;;6.99;64.14;94882.91;4991232;28;20237;-72
2022/01/21 07:11:21;;;;;;;4.97;3.87;;;;;;;6.97;64.01;94883.03;4994065;28;20182;-74
2022/01/21 07:13:48;;;;;;;4.33;3.63;;;;;;;6.96;64.00;94888.25;4994705;28;20949;-75
2022/01/21 07:16:15;;;;;;;3.80;3.40;;;;;;;6.93;63.50;94891.00;4995640;28;20192;-75
2022/01/21 07:18:42;;;;;;;6.13;3.30;;;;;;;6.92;63.80;94890.19;4995061;28;20664;-74
2022/01/21 07:21:08;;;;;;;3.93;3.40;;;;;;;6.78;63.66;94882.75;4991039;28;20200;-78
2022/01/21 07:23:35;;;;;;;5.67;3.43;;;;;;;6.87;63.61;94909.25;4990867;28;20624;-75
2022/01/21 07:26:05;;;;;;;4.10;3.00;;;;;;;6.69;63.59;94889.31;4991142;28;20193;-74
2022/01/21 07:28:32;;;;;;;3.07;2.80;;;;;;;6.57;63.31;94869.03;4990777;28;20221;-73
2022/01/21 07:30:59;;;;;;;3.77;3.03;;;;;;;6.77;63.30;94897.16;4990812;28;20205;-77
2022/01/21 07:33:25;;;;;;;3.63;3.10;;;;;;;6.83;63.28;94916.28;4990657;28;20193;-74
2022/01/21 07:35:52;;;;;;;4.23;3.07;;;;;;;6.84;63.32;94928.06;4990409;28;20263;-76
2022/01/21 07:38:19;;;;;;;3.27;2.97;;;;;;;6.84;63.24;94924.72;4990720;28;20196;-75
2022/01/21 07:40:46;;;;;;;6.47;3.07;;;;;;;6.61;63.70;94895.84;4990599;28;20201;-73
2022/01/21 07:43:14;;;;;;;3.03;2.70;;;;;;;6.79;63.44;94930.94;4990494;28;20649;-73
2022/01/21 07:45:41;;;;;;;3.17;2.80;;;;;;;6.80;63.42;94939.38;4990385;28;20193;-73
2022/01/21 07:48:09;;;;;;;3.03;2.83;;;;;;;6.80;63.23;94944.44;4990692;28;20224;-72
2022/01/21 07:50:36;;;;;;;3.23;2.90;;;;;;;6.83;63.11;94934.06;4989953;28;20200;-74
2022/01/21 07:53:04;;;;;;;3.47;2.77;;;;;;;6.73;63.09;94917.84;4989391;28;20201;-71
2022/01/21 07:55:31;;;;;;;3.73;2.70;;;;;;;6.86;63.10;94938.91;4989988;28;20192;-72
2022/01/21 07:58:00;;;;;;;3.50;3.20;;;;;;;6.89;62.85;94941.25;4990356;28;20220;-73
2022/01/21 08:00:28;;;;;;;3.87;3.13;;;;;;;6.92;62.77;94940.22;4990213;28;20225;-75
2022/01/21 08:02:55;;;;;;;4.40;3.83;;;;;;;6.96;62.60;94947.53;5003533;28;20208;-76
2022/01/21 08:05:22;;;;;;;5.13;4.07;;;;;;;6.90;62.54;94942.88;5012029;28;20192;-73
2022/01/21 08:07:49;;;;;;;4.73;4.10;;;;;;;7.04;62.38;94960.50;5011669;28;20715;-73
2022/01/21 08:10:16;;;;;;;5.60;4.30;;;;;;;7.09;62.43;94944.91;5012596;28;20196;-73
2022/01/21 08:12:42;;;;;;;6.47;4.03;;;;;;;7.10;62.13;94948.28;5011797;28;20192;-73
2022/01/21 08:15:10;;;;;;;7.33;5.13;;;;;;;7.15;62.05;94952.09;5012128;28;20192;-72
2022/01/21 08:17:38;;;;;;;6.90;5.47;;;;;;;7.19;62.00;94952.69;5011322;28;20196;-72
2022/01/21 08:20:06;;;;;;;5.80;4.70;;;;;;;7.22;61.71;94970.28;5011933;28;20671;-72
2022/01/21 08:22:33;;;;;;;6.97;5.23;;;;;;;7.24;61.55;94965.88;5011554;28;20671;-72
2022/01/21 08:25:00;;;;;;;5.67;4.80;;;;;;;7.23;61.42;94964.25;5012289;28;20192;-74
2022/01/21 08:27:27;;;;;;;5.50;4.83;;;;;;;7.25;61.33;94964.94;5009876;28;20660;-73
2022/01/21 08:29:53;;;;;;;7.43;5.53;;;;;;;7.29;61.52;94977.34;5011352;28;20348;-71
2022/01/21 08:32:21;;;;;;;6.13;4.77;;;;;;;7.33;61.23;94983.03;5011490;28;20567;-73
2022/01/21 08:34:49;;;;;;;7.50;5.37;;;;;;;7.35;61.15;94981.19;5011040;28;20878;-73
2022/01/21 08:37:16;;;;;;;6.87;4.77;;;;;;;7.36;60.91;94980.25;5011503;28;20659;-73
2022/01/21 08:39:43;;;;;;;6.33;4.43;;;;;;;7.44;60.90;94982.25;5011398;28;20222;-72
2022/01/21 08:42:10;;;;;;;6.07;5.17;;;;;;;7.48;60.55;94968.41;5011902;28;20216;-73
2022/01/21 08:44:37;;;;;;;8.07;5.70;;;;;;;7.53;60.97;94948.50;5010984;28;20208;-73
2022/01/21 08:47:04;;;;;;;6.83;5.43;;;;;;;7.60;60.12;94938.66;5011617;28;20193;-73
2022/01/21 08:49:31;;;;;;;6.13;5.30;;;;;;;7.62;60.23;94941.91;5010823;28;20283;-73
2022/01/21 08:52:00;;;;;;;6.73;5.23;;;;;;;7.74;59.86;94949.47;5009729;28;20196;-73
2022/01/21 08:54:29;;;;;;;5.60;4.50;;;;;;;7.85;59.49;94961.38;5010255;28;20211;-73
2022/01/21 08:56:57;;;;;;;5.47;4.50;;;;;;;7.96;59.31;94971.59;5011158;28;20199;-73
2022/01/21 08:59:26;;;;;;;7.00;4.83;;;;;;;8.00;59.06;94972.16;5010894;28;20192;-79
2022/01/21 09:01:53;;;;;;;5.80;4.43;;;;;;;8.05;58.79;94972.63;5011163;28;20192;-74
2022/01/21 09:04:20;;;;;;;6.97;4.63;;;;;;;8.16;58.90;94982.84;5010299;28;20679;-73
2022/01/21 09:06:47;;;;;;;7.73;5.00;;;;;;;8.21;58.52;94990.13;5010933;28;20207;-74
2022/01/21 09:09:15;;;;;;;7.23;4.57;;;;;;;8.24;58.39;94972.03;5010726;28;20291;-72
2022/01/21 09:11:42;;;;;;;7.13;5.07;;;;;;;8.29;58.24;94965.69;5011352;28;20184;-75
2022/01/21 09:14:09;;;;;;;4.93;4.20;;;;;;;8.35;58.17;94949.09;5011285;28;20196;-73
2022/01/21 09:16:36;;;;;;;8.07;4.53;;;;;;;8.42;58.04;94957.09;5010306;28;20692;-73
2022/01/21 09:19:04;;;;;;;5.13;4.43;;;;;;;8.46;57.63;94958.50;5010675;28;20185;-73
2022/01/21 09:21:33;;;;;;;4.70;3.73;;;;;;;8.52;57.73;94950.41;5011082;28;20656;-73
2022/01/21 09:24:00;;;;;;;5.40;3.83;;;;;;;8.57;57.64;94942.38;5011057;28;20192;-72
2022/01/21 09:26:29;;;;;;;5.83;4.30;;;;;;;8.61;57.45;94928.47;5010676;28;20195;-74
2022/01/21 09:28:56;;;;;;;6.30;4.00;;;;;;;8.72;57.34;94930.97;5010899;28;20251;-73
2022/01/21 09:31:23;;;;;;;5.17;4.17;;;;;;;8.78;57.19;94918.56;5010552;28;20231;-72
2022/01/21 09:33:50;;;;;;;3.40;3.10;;;;;;;8.64;56.70;94877.25;5010322;28;20200;-72
2022/01/21 09:36:19;;;;;;;4.67;3.50;;;;;;;8.94;56.49;94913.06;5010464;28;20281;-73
2022/01/21 09:38:46;;;;;;;7.23;3.10;;;;;;;9.02;56.32;94910.72;5010492;28;20211;-73
2022/01/21 09:41:13;;;;;;;3.30;3.10;;;;;;;9.09;55.99;94913.56;5010309;28;20199;-74
2022/01/21 09:43:46;;;;;;;5.67;3.60;;;;;;;9.18;55.75;94919.69;5008935;28;20195;-72
2022/01/21 09:46:13;;;;;;;4.13;3.60;;;;;;;9.26;55.31;94919.88;5010299;28;20231;-72
2022/01/21 09:48:51;;;;;;;5.30;3.77;;;;;;;9.36;55.15;94932.69;5010736;28;20223;-74
2022/01/21 09:51:19;;;;;;;3.00;2.77;;;;;;;9.38;54.64;94895.13;5010272;28;20192;-72
2022/01/21 09:53:46;;;;;;;5.00;2.93;;;;;;;9.54;54.29;94903.09;5010497;28;20663;-73
2022/01/21 09:56:16;;;;;;;8.40;3.80;;;;;;;9.64;54.14;94901.44;5012251;28;20208;-73
2022/01/21 09:58:47;;;;;;;4.53;3.27;;;;;;;9.79;53.88;94920.56;5014684;28;20192;-72
2022/01/21 10:01:19;;;;;;;5.43;3.40;;;;;;;9.91;53.26;94907.72;5013434;28;20192;-73
2022/01/21 10:03:48;;;;;;;3.70;3.30;;;;;;;10.03;53.07;94904.97;5010459;28;20361;-73
2022/01/21 10:06:15;;;;;;;4.30;3.30;;;;;;;10.17;52.77;94906.34;5009842;28;20200;-73
2022/01/21 10:08:44;;;;;;;5.07;3.10;;;;;;;10.26;52.47;94897.94;5007765;28;20231;-72
2022/01/21 10:11:11;;;;;;;3.93;3.20;;;;;;;10.43;52.21;94898.25;5009992;28;20190;-71
2022/01/21 10:13:39;;;;;;;3.37;2.67;;;;;;;10.55;51.85;94898.00;5010087;28;20192;-73
2022/01/21 10:16:08;;;;;;;4.40;3.97;;;;;;;10.54;51.61;94878.47;5010406;28;20200;-72
2022/01/21 10:18:36;;;;;;;5.00;3.07;;;;;;;10.75;51.24;94893.72;5014455;28;20188;-74
2022/01/21 10:21:05;;;;;;;4.00;3.00;;;;;;;10.86;50.69;94881.72;5013911;28;20192;-73
2022/01/21 10:23:36;;;;;;;4.50;2.80;;;;;;;10.91;50.52;94884.69;5013566;28;20235;-73
2022/01/21 10:26:06;;;;;;;3.50;2.70;;;;;;;10.99;50.19;94880.50;5013887;28;20192;-72
2022/01/21 10:28:33;;;;;;;3.63;2.87;;;;;;;11.02;50.15;94877.69;5013468;28;20212;-72
2022/01/21 10:31:16;;;;;;;5.67;3.43;;;;;;;11.06;49.83;94883.34;5014181;28;20192;-73
2022/01/21 10:33:46;;;;;;;6.90;5.80;;;;;;;11.08;50.01;94875.53;5011775;28;20649;-73
2022/01/21 10:36:21;;;;;;;5.90;4.83;;;;;;;11.08;49.70;94876.31;5013874;28;20609;-72
2022/01/21 10:38:51;;;;;;;12.83;8.53;;;;;;;11.03;49.50;94855.47;5013476;28;20195;-72
2022/01/21 10:41:21;;;;;;;10.23;8.57;;;;;;;11.24;49.21;94866.34;5013962;28;20267;-73
2022/01/21 10:44:07;;;;;;;12.03;7.87;;;;;;;11.36;48.88;94867.00;5013266;28;20193;-73
2022/01/21 10:46:35;;;;;;;9.03;6.43;;;;;;;11.47;48.55;94863.47;5013640;28;20176;-73
2022/01/21 10:49:05;;;;;;;7.73;6.30;;;;;;;11.55;48.67;94864.38;5013406;28;20235;-73
2022/01/21 10:51:34;;;;;;;6.77;5.13;;;;;;;11.61;48.33;94863.00;5013053;28;20196;-73
2022/01/21 10:54:14;;;;;;;6.30;5.10;;;;;;;11.66;48.21;94865.97;5013716;28;20189;-72
2022/01/21 10:56:40;;;;;;;5.60;4.20;;;;;;;11.71;48.06;94856.13;5013354;28;20203;-72
2022/01/21 10:59:07;;;;;;;7.03;4.13;;;;;;;11.61;47.77;94826.34;5013571;28;20299;-73
2022/01/21 11:01:35;;;;;;;6.23;4.63;;;;;;;11.81;47.51;94851.75;5012979;28;20192;-73
2022/01/21 11:04:08;;;;;;;5.50;4.10;;;;;;;11.88;47.46;94846.09;5013171;28;20214;-73
2022/01/21 11:06:44;;;;;;;5.00;3.90;;;;;;;11.96;47.17;94851.31;5012576;28;20629;-73
2022/01/21 11:09:16;;;;;;;6.93;3.97;;;;;;;12.02;47.15;94850.75;5013113;28;20267;-72
2022/01/21 11:11:43;;;;;;;4.10;3.43;;;;;;;12.08;47.14;94851.94;5012790;28;20239;-73
2022/01/21 11:14:16;;;;;;;3.67;3.17;;;;;;;12.11;46.98;94841.41;5013026;28;20327;-72
2022/01/21 11:16:46;;;;;;;3.53;3.23;;;;;;;12.10;46.88;94840.59;5012349;28;20192;-74
2022/01/21 11:19:16;;;;;;;5.10;3.60;;;;;;;12.10;46.74;94834.66;5013278;28;20196;-73
2022/01/21 11:21:51;;;;;;;3.83;3.20;;;;;;;12.03;46.58;94832.66;5012880;28;20295;-72
2022/01/21 11:24:19;;;;;;;4.83;3.80;;;;;;;12.13;46.60;94853.09;5013134;28;20192;-72
2022/01/21 11:27:06;;;;;;;3.60;3.13;;;;;;;12.15;46.22;94840.97;5013398;28;20214;-74
2022/01/21 11:29:33;;;;;;;3.93;3.43;;;;;;;12.19;46.19;94837.16;5013808;28;20212;-73
2022/01/21 11:32:03;;;;;;;3.97;3.50;;;;;;;12.26;46.07;94837.38;5012485;28;20193;-73
2022/01/21 11:34:30;;;;;;;4.07;3.40;;;;;;;12.30;46.10;94833.59;5012931;28;20181;-73
2022/01/21 11:36:58;;;;;;;4.23;3.73;;;;;;;12.30;46.03;94847.25;5012337;28;20196;-72
2022/01/21 11:39:25;;;;;;;3.93;3.40;;;;;;;12.23;45.60;94835.13;5012540;28;20200;-72
2022/01/21 11:41:57;;;;;;;4.07;3.10;;;;;;;12.27;45.62;94839.03;5012198;28;20220;-72
2022/01/21 11:44:25;;;;;;;4.00;3.33;;;;;;;12.20;45.74;94838.78;5012492;28;20573;-72
2022/01/21 11:47:13;;;;;;;3.50;3.03;;;;;;;12.23;45.60;94832.56;5012118;28;20223;-72
2022/01/21 11:49:43;;;;;;;6.40;3.00;;;;;;;12.19;45.42;94855.13;5012289;28;20223;-73
2022/01/21 11:52:14;;;;;;;6.80;3.33;;;;;;;12.16;45.31;94859.72;5012223;28;20200;-72
2022/01/21 11:54:42;;;;;;;6.67;3.10;;;;;;;12.05;45.14;94835.09;5013177;28;20189;-75
2022/01/21 11:57:11;;;;;;;3.20;2.87;;;;;;;12.11;45.01;94846.53;5012889;28;20184;-76
2022/01/21 11:59:46;;;;;;;4.73;3.63;;;;;;;12.06;44.82;94841.84;5013116;28;20250;-73
2022/01/21 12:02:26;;;;;;;4.37;3.27;;;;;;;12.01;44.88;94838.91;5012671;28;20226;-73
2022/01/21 12:04:56;;;;;;;3.80;3.00;;;;;;;11.93;44.71;94839.59;5012011;28;20734;-74
2022/01/21 12:07:57;;;;;;;4.60;3.70;;;;;;;11.77;44.80;94837.59;5010978;28;20280;-74
2022/01/21 12:10:42;;;;;;;4.20;3.53;;;;;;;11.62;44.84;94845.91;5011905;28;20234;-73
2022/01/21 12:13:17;;;;;;;4.37;3.50;;;;;;;11.45;44.76;94835.44;5011888;28;20231;-73
2022/01/21 12:15:57;;;;;;;5.60;3.53;;;;;;;11.29;45.16;94832.66;5011914;28;20206;-73
2022/01/21 12:18:58;;;;;;;4.17;3.13;;;;;;;11.17;44.98;94831.19;5011891;28;20192;-75
2022/01/21 12:21:28;;;;;;;5.17;3.90;;;;;;;11.05;45.13;94826.25;5011807;28;20865;-74
2022/01/21 12:23:55;;;;;;;4.33;3.30;;;;;;;10.86;45.26;94810.09;5011386;28;20192;-75
2022/01/21 12:26:23;;;;;;;4.00;3.60;;;;;;;10.83;45.28;94821.41;5011783;28;20660;-74
2022/01/21 12:29:21;;;;;;;4.50;3.77;;;;;;;10.82;45.54;94844.56;5011528;28;20200;-75